Terminal Aerodrome Forecast
Issued by NWS

Home | Current Version | Previous Version | Text Only | Print | Product List | Glossary On
Versions: 1 2 3 4 5 6 7 8 9 10 11 12 13 14 15 16 17 18 19 20 21 22 23 24 25 26 27 28 29 30 31 32 33 34 35 36 37 38 39 40 41 42
000
FTUS46 KOTX 280539
TAFMWH
TAF
KMWH 280539Z 2806/2906 20010KT P6SM SKC WS015/24035KT
     FM281000 20008KT P6SM SCT008 BKN130 WS015/24030KT
     FM281900 22015G30KT P6SM VCSH SCT070 OVC100=

USA.gov is the U.S. government's official web portal to all federal, state and local government web resources and services.